If you wish to contribute or participate in the discussions about articles you are invited to join SKYbrary as a registered user

 Actions

Teniente General Benjamin Matienzo International Airport

From SKYbrary Wiki

SANT
Airport
ICAO: SANT – IATA: TUC
Summary
Name Teniente General Benjamin Matienzo International Airport
Region South America and Caribbean
Territory Argentina AR.gif
Location San Miguel de Tucuman, Tucuman
Serving Tucuman
Elevation 455.066 m
1,493 ft
1,493 ft455.066 m
Type medium airport
Coordinates 26° 50' 27.10" S, 65° 6' 17.80" W
Runways
Designator Length Width Surface ROPS
1/19 2900 m9,514.436 ft
45 m147.638 ft
CON yes/yes


METAR
Observation SANT 211500Z 09007KT 7000 NSC 21/M00 Q1022
Station Tucuman Aerodrome
Date/Time 21 September 2019 15:00:00
Wind direction 90°
Wind speed 07 kts
Lowest cloud amount nil significant cloud
Temperature 21°C
Dew point
Humidity 24%
QNH 1022 hPa
Weather condition n/a

Airport serving Tucuman, Tucuman Province, Argentina.

Climatology

Humid Sub-tropical climate (Köppen climate classification Cwa).

Maps

Terrain

Loading map...

Airport Layout

Loading map...


Accidents & Serious Incidents at or in vicinity of SANT

None on SKYbrary